createdAt,value
2018-01-21T00:05:15.527Z,2.5
2018-01-21T00:15:29.717Z,2.4
2018-01-21T00:26:21.294Z,2.4
2018-01-21T00:37:09.952Z,2.3
2018-01-21T00:47:57.448Z,2.3
2018-01-21T00:58:14.565Z,2.3
2018-01-21T01:08:28.473Z,2.3
2018-01-21T01:19:21.337Z,2.2
2018-01-21T01:40:58.814Z,2.2
2018-01-21T01:52:17.064Z,2.2
2018-01-21T02:03:06.157Z,2.0
2018-01-21T02:13:20.373Z,2.0
2018-01-21T02:24:11.862Z,1.7
2018-01-21T02:35:29.244Z,1.6
2018-01-21T02:46:16.418Z,1.4
2018-01-21T02:57:03.481Z,1.2
2018-01-21T03:07:54.879Z,1.1
2018-01-21T03:19:24.634Z,1.0
2018-01-21T03:30:28.552Z,1.0
2018-01-21T03:41:15.327Z,0.9
2018-01-21T03:52:00.483Z,0.7
2018-01-21T04:02:47.801Z,0.6
2018-01-21T04:13:38.593Z,0.6
2018-01-21T04:24:13.462Z,0.6
2018-01-21T04:34:58.264Z,0.6
2018-01-21T04:45:49.461Z,0.6
2018-01-21T04:56:37.338Z,0.6
2018-01-21T05:07:31.138Z,0.5
2018-01-21T05:18:16.825Z,0.5
2018-01-21T05:28:31.684Z,0.5
2018-01-21T05:39:18.661Z,0.4
2018-01-21T05:49:33.363Z,0.4
2018-01-21T06:00:31.787Z,0.5
2018-01-21T06:10:46.244Z,0.5
2018-01-21T06:21:34.327Z,0.5
2018-01-21T06:31:49.045Z,0.5
2018-01-21T06:43:04.815Z,0.6
2018-01-21T06:53:19.935Z,0.6
2018-01-21T07:04:08.069Z,0.7
2018-01-21T07:14:22.609Z,0.7
2018-01-21T07:25:26.803Z,0.7
2018-01-21T07:35:43.779Z,0.8
2018-01-21T07:45:57.720Z,0.8
2018-01-21T07:56:13.183Z,0.9
2018-01-21T08:07:03.825Z,0.9
2018-01-21T08:17:52.094Z,1.0
2018-01-21T08:29:58.508Z,1.1
2018-01-21T08:42:34.844Z,1.2
2018-01-21T08:55:05.090Z,1.3
2018-01-21T09:05:50.609Z,1.5
2018-01-21T09:16:38.189Z,1.7
2018-01-21T09:26:52.258Z,1.7
2018-01-21T09:37:40.486Z,2.3
2018-01-21T09:47:53.653Z,2.3
2018-01-21T09:59:15.713Z,2.9
2018-01-21T10:12:14.899Z,3.2
2018-01-21T10:23:45.973Z,3.6
2018-01-21T10:34:31.371Z,3.9
2018-01-21T10:45:20.368Z,4.3
2018-01-21T10:56:11.355Z,4.4
2018-01-21T11:07:02.132Z,4.4
2018-01-21T11:17:49.525Z,4.5
2018-01-21T11:29:03.741Z,4.9
2018-01-21T11:40:01.315Z,5.5
2018-01-21T12:01:52.271Z,6.3
2018-01-21T12:12:07.268Z,6.3
2018-01-21T12:22:21.776Z,6.4
2018-01-21T12:33:11.031Z,6.8
2018-01-21T12:44:28.991Z,7.3
2018-01-21T13:08:08.552Z,7.9
2018-01-21T13:33:39.242Z,7.9
2018-01-21T14:25:35.734Z,6.9
2018-01-21T14:35:47.682Z,6.9
2018-01-21T15:00:16.291Z,6.4
2018-01-21T15:22:46.079Z,6.2
2018-01-21T15:33:31.253Z,5.9
2018-01-21T15:44:17.808Z,5.4
2018-01-21T16:34:53.743Z,4.0
2018-01-21T16:55:46.172Z,3.7
2018-01-21T17:06:45.930Z,3.2
2018-01-21T17:18:01.466Z,3.0
2018-01-21T17:28:21.045Z,3.0
2018-01-21T17:55:31.733Z,2.4
2018-01-21T18:07:20.015Z,2.2
2018-01-21T18:17:40.071Z,1.9
2018-01-21T18:29:48.780Z,1.6
2018-01-21T18:40:36.903Z,1.5
2018-01-21T18:51:34.669Z,1.5
2018-01-21T19:01:49.264Z,1.4
2018-01-21T19:12:37.603Z,1.1
2018-01-21T19:24:30.103Z,1.1
2018-01-21T19:35:17.162Z,1.0
2018-01-21T19:56:53.361Z,1.0
2018-01-21T20:07:40.532Z,1.0
2018-01-21T20:17:52.819Z,1.0
2018-01-21T20:29:53.707Z,1.0
2018-01-21T20:51:27.438Z,1.0
2018-01-21T21:08:03.917Z,1.1
2018-01-21T21:19:21.837Z,1.1
2018-01-21T21:30:43.978Z,1.3
2018-01-21T21:41:49.070Z,1.4
2018-01-21T21:53:08.197Z,1.3
2018-01-21T22:04:11.662Z,1.4
2018-01-21T22:15:43.288Z,1.5
2018-01-21T22:26:55.380Z,1.6
2018-01-21T22:37:17.185Z,1.6
2018-01-21T22:48:05.203Z,1.6
2018-01-21T22:58:51.415Z,1.6
2018-01-21T23:09:44.900Z,1.6
2018-01-21T23:20:21.373Z,1.6
2018-01-21T23:30:42.757Z,1.7
2018-01-21T23:41:05.105Z,1.7
2018-01-21T23:51:19.682Z,1.6
